Time;durP1;ratioP1;P1;durP2;ratioP2;P2;SDS_P1;SDS_P2;PMS_P1;PMS_P2;Temp;Humidity;BMP_temperature;BMP_pressure;BME280_temperature;BME280_humidity;BME280_pressure;Samples;Min_cycle;Max_cycle;Signal;HPM_P1;HPM_P2
2022/05/17 00:00:07;;;;;;;;;;;;;;;23.52;43.25;95401.31;2089575;28;1044;-60
2022/05/17 00:01:09;;;;;;;;;;;;;;;23.52;43.16;95403.97;2090985;28;1109;-59
2022/05/17 00:02:13;;;;;;;;;;;;;;;23.52;43.20;95395.94;2090678;28;1483;-61
2022/05/17 00:03:15;;;;;;;;;;;;;;;23.53;43.44;95400.25;2084291;28;1668;-60
2022/05/17 00:04:19;;;;;;;;;;;;;;;23.51;43.68;95394.31;2090629;28;1837;-59
2022/05/17 00:05:21;;;;;;;;;;;;;;;23.53;43.59;95403.75;2091111;28;1109;-59
2022/05/17 00:06:26;;;;;;;;;;;;;;;23.53;43.55;95401.06;2091123;28;1067;-60
2022/05/17 00:07:27;;;;;;;;;;;;;;;23.53;43.53;95402.94;2090944;28;1040;-59
2022/05/17 00:08:30;;;;;;;;;;;;;;;23.51;43.59;95399.66;2083695;28;1207;-60
2022/05/17 00:09:32;;;;;;;;;;;;;;;23.52;43.36;95393.25;2090952;28;1491;-63
2022/05/17 00:10:35;;;;;;;;;;;;;;;23.51;43.31;95392.44;2091003;28;1033;-59
2022/05/17 00:11:37;;;;;;;;;;;;;;;23.50;43.93;95392.66;2090988;28;1642;-59
2022/05/17 00:12:40;;;;;;;;;;;;;;;23.50;43.93;95392.66;2091264;28;1068;-59
2022/05/17 00:13:42;;;;;;;;;;;;;;;23.49;43.29;95396.38;2086931;28;1663;-61
2022/05/17 00:14:44;;;;;;;;;;;;;;;23.49;43.56;95396.38;2085937;28;1682;-60
2022/05/17 00:15:48;;;;;;;;;;;;;;;23.50;43.64;95390.78;2090968;28;1665;-60
2022/05/17 00:16:51;;;;;;;;;;;;;;;23.50;43.58;95400.69;2091060;28;1727;-61
2022/05/17 00:17:55;;;;;;;;;;;;;;;23.50;43.54;95393.47;2090514;28;1131;-60
2022/05/17 00:18:58;;;;;;;;;;;;;;;23.49;43.77;95405.25;2090983;28;1910;-60
2022/05/17 00:20:00;;;;;;;;;;;;;;;23.49;43.72;95401.75;2091006;28;1113;-60
2022/05/17 00:21:03;;;;;;;;;;;;;;;23.49;43.71;95394.50;2091081;28;1651;-60
2022/05/17 00:22:08;;;;;;;;;;;;;;;23.57;43.99;95401.47;2091134;28;1100;-60
2022/05/17 00:23:11;;;;;;;;;;;;;;;23.53;43.77;95400.25;2090389;28;1985;-60
2022/05/17 00:24:15;;;;;;;;;;;;;;;23.52;43.82;95395.94;2090684;28;1632;-61
2022/05/17 00:25:17;;;;;;;;;;;;;;;23.50;43.66;95398.81;2085866;28;1783;-59
2022/05/17 00:26:21;;;;;;;;;;;;;;;23.49;43.58;95399.06;2086179;28;1391;-60
2022/05/17 00:27:23;;;;;;;;;;;;;;;23.49;43.52;95404.41;2091066;28;2008;-59
2022/05/17 00:28:27;;;;;;;;;;;;;;;23.48;44.15;95398.25;2090899;28;1613;-60
2022/05/17 00:29:29;;;;;;;;;;;;;;;23.42;43.76;95396.41;2091001;28;1069;-59
2022/05/17 00:30:32;;;;;;;;;;;;;;;23.47;43.93;95404.63;2090838;28;1615;-59
2022/05/17 00:31:34;;;;;;;;;;;;;;;23.48;43.55;95400.09;2090768;28;1306;-59
2022/05/17 00:32:37;;;;;;;;;;;;;;;23.46;43.89;95398.44;2090465;28;1627;-59
2022/05/17 00:33:40;;;;;;;;;;;;;;;23.57;43.94;95402.28;2091077;28;807;-62
2022/05/17 00:34:46;;;;;;;;;;;;;;;23.61;43.93;95394.59;2090997;28;1709;-62
2022/05/17 00:35:48;;;;;;;;;;;;;;;23.65;43.03;95395.81;2091048;28;1048;-62
2022/05/17 00:36:51;;;;;;;;;;;;;;;23.68;43.59;95398.06;2084381;28;1202;-66
2022/05/17 00:37:53;;;;;;;;;;;;;;;23.71;42.97;95402.16;2089489;28;973;-62
2022/05/17 00:38:56;;;;;;;;;;;;;;;23.72;43.09;95388.50;2090894;28;1946;-62
2022/05/17 00:39:58;;;;;;;;;;;;;;;23.73;43.58;95397.38;2090578;28;1056;-62
2022/05/17 00:41:00;;;;;;;;;;;;;;;23.73;43.06;95395.50;2091126;28;1076;-62
2022/05/17 00:42:04;;;;;;;;;;;;;;;23.74;42.65;95399.84;2091112;28;1052;-63
2022/05/17 00:43:06;;;;;;;;;;;;;;;23.75;42.72;95390.75;2090917;28;1112;-63
2022/05/17 00:45:29;;;;;;;;;;;;;;;23.75;43.21;95395.28;2082818;28;1052;-63
2022/05/17 00:46:37;;;;;;;;;;;;;;;23.75;43.51;95398.78;2082834;28;1665;-64
2022/05/17 00:47:42;;;;;;;;;;;;;;;23.73;43.14;95400.06;2085354;28;1613;-61
2022/05/17 00:48:47;;;;;;;;;;;;;;;23.66;43.27;95400.13;2085774;28;1756;-60
2022/05/17 00:49:52;;;;;;;;;;;;;;;23.62;43.55;95398.94;2090955;28;1040;-61
2022/05/17 00:50:54;;;;;;;;;;;;;;;23.59;43.29;95402.03;2091053;28;1121;-59
2022/05/17 00:51:59;;;;;;;;;;;;;;;23.57;43.29;95401.47;2090563;28;2085;-59
2022/05/17 00:53:04;;;;;;;;;;;;;;;23.55;43.17;95396.31;2090846;28;1425;-60
2022/05/17 00:54:09;;;;;;;;;;;;;;;23.55;43.67;95396.31;2090827;28;2081;-60
2022/05/17 00:55:16;;;;;;;;;;;;;;;23.55;43.53;95398.16;2090555;28;1097;-62
2022/05/17 00:56:22;;;;;;;;;;;;;;;23.53;43.64;95394.88;2090810;28;1175;-60
2022/05/17 00:57:28;;;;;;;;;;;;;;;23.52;43.49;95396.75;2090566;28;1017;-60
2022/05/17 00:58:33;;;;;;;;;;;;;;;23.51;43.91;95395.13;2090608;28;1109;-60
2022/05/17 00:59:36;;;;;;;;;;;;;;;23.51;43.92;95400.47;2083052;28;1902;-61
2022/05/17 01:00:44;;;;;;;;;;;;;;;23.51;43.85;95394.31;2090233;28;1561;-60
2022/05/17 01:01:46;;;;;;;;;;;;;;;23.51;43.76;95394.31;2090260;28;1664;-62
2022/05/17 01:02:51;;;;;;;;;;;;;;;23.51;43.61;95388.94;2090835;28;1156;-59
2022/05/17 01:03:55;;;;;;;;;;;;;;;23.49;43.89;95391.81;2090690;28;1918;-60
2022/05/17 01:04:59;;;;;;;;;;;;;;;23.49;43.84;95393.69;2090682;28;1048;-60
2022/05/17 01:06:01;;;;;;;;;;;;;;;23.49;44.10;95391.00;2090680;28;1687;-60
2022/05/17 01:07:06;;;;;;;;;;;;;;;23.49;43.95;95385.66;2090437;28;1184;-59
2022/05/17 01:08:10;;;;;;;;;;;;;;;23.49;44.02;95391.81;2086194;28;1201;-60
2022/05/17 01:09:13;;;;;;;;;;;;;;;23.48;43.87;95390.19;2085367;28;1678;-60
2022/05/17 01:10:15;;;;;;;;;;;;;;;23.49;43.89;95391.00;2087458;28;1105;-63
2022/05/17 01:11:18;;;;;;;;;;;;;;;23.49;44.03;95385.66;2084823;28;1436;-60
2022/05/17 01:12:20;;;;;;;;;;;;;;;23.49;43.92;95385.66;2089701;28;1341;-59
2022/05/17 01:14:58;;;;;;;;;;;;;;;23.48;44.25;95384.84;2090384;28;1817;-59
2022/05/17 01:16:00;;;;;;;;;;;;;;;23.48;44.45;95386.66;2090541;28;1720;-61
2022/05/17 01:17:03;;;;;;;;;;;;;;;23.48;44.00;95389.34;2090207;28;1048;-59
2022/05/17 01:18:06;;;;;;;;;;;;;;;23.48;44.39;95382.16;2090447;28;1685;-59
2022/05/17 01:19:10;;;;;;;;;;;;;;;23.48;43.78;95387.50;2090590;28;1979;-60
2022/05/17 01:20:14;;;;;;;;;;;;;;;23.47;44.35;95380.50;2090372;28;1718;-61
2022/05/17 01:21:18;;;;;;;;;;;;;;;23.48;44.09;95378.63;2090421;28;1120;-60
2022/05/17 01:22:21;;;;;;;;;;;;;;;23.46;44.00;95374.31;2082522;28;1876;-63
2022/05/17 01:23:22;;;;;;;;;;;;;;;23.46;44.42;95377.00;2082220;28;1028;-60
2022/05/17 01:24:26;;;;;;;;;;;;;;;23.46;43.97;95370.81;2087216;28;1675;-60
2022/05/17 01:25:28;;;;;;;;;;;;;;;23.46;43.95;95373.50;2090490;28;1013;-60
2022/05/17 01:26:32;;;;;;;;;;;;;;;23.47;44.48;95375.13;2090621;28;1014;-60
2022/05/17 01:27:37;;;;;;;;;;;;;;;23.47;44.74;95375.13;2090504;28;1104;-59
2022/05/17 01:28:40;;;;;;;;;;;;;;;23.47;45.43;95372.44;2090538;28;1191;-59
2022/05/17 01:29:44;;;;;;;;;;;;;;;23.46;44.47;95377.00;2082207;28;1113;-60
2022/05/17 01:30:47;;;;;;;;;;;;;;;23.48;44.46;95375.94;2082248;28;1159;-59
2022/05/17 01:31:51;;;;;;;;;;;;;;;23.47;44.21;95375.13;2089538;28;1100;-61
2022/05/17 01:32:54;;;;;;;;;;;;;;;23.46;44.82;95377.00;2090200;28;1200;-60
2022/05/17 01:33:56;;;;;;;;;;;;;;;23.46;44.46;95377.00;2082572;28;1612;-60
2022/05/17 01:35:00;;;;;;;;;;;;;;;23.45;44.24;95372.69;2090416;28;1617;-60
2022/05/17 01:36:03;;;;;;;;;;;;;;;23.46;44.74;95377.00;2090467;28;1665;-60
2022/05/17 01:37:07;;;;;;;;;;;;;;;23.46;44.35;95377.00;2090507;28;1172;-59
2022/05/17 01:38:10;;;;;;;;;;;;;;;23.46;44.20;95374.31;2090491;28;1128;-61
2022/05/17 01:39:12;;;;;;;;;;;;;;;23.47;44.56;95375.13;2089779;28;1706;-60
2022/05/17 01:40:15;;;;;;;;;;;;;;;23.45;44.24;95375.38;2090709;28;1913;-59
2022/05/17 01:41:17;;;;;;;;;;;;;;;23.45;44.30;95378.03;2090610;28;1052;-60
2022/05/17 01:42:20;;;;;;;;;;;;;;;23.46;44.32;95378.88;2090683;28;1021;-60
2022/05/17 01:43:22;;;;;;;;;;;;;;;23.45;44.60;95370.00;2090216;28;1722;-59
2022/05/17 01:44:25;;;;;;;;;;;;;;;23.44;44.21;95379.06;2086533;28;983;-60
2022/05/17 01:45:27;;;;;;;;;;;;;;;23.44;44.57;95373.69;2085611;28;1101;-59
2022/05/17 01:46:30;;;;;;;;;;;;;;;23.44;44.31;95371.03;2090046;28;1502;-60
2022/05/17 01:47:32;;;;;;;;;;;;;;;23.45;44.42;95374.56;2090173;28;1631;-60
2022/05/17 01:48:36;;;;;;;;;;;;;;;23.45;44.57;95372.69;2090349;28;1291;-60
2022/05/17 01:49:37;;;;;;;;;;;;;;;23.44;44.67;95376.38;2090097;28;1687;-61
2022/05/17 01:50:40;;;;;;;;;;;;;;;23.49;44.37;95375.72;2090427;28;1188;-59
2022/05/17 01:51:42;;;;;;;;;;;;;;;23.56;44.29;95378.34;2090005;28;1778;-61
2022/05/17 01:52:46;;;;;;;;;;;;;;;23.59;44.29;95380.59;2090147;28;1760;-60
2022/05/17 01:53:48;;;;;;;;;;;;;;;23.62;43.95;95375.63;2090009;28;1047;-59
2022/05/17 01:54:51;;;;;;;;;;;;;;;23.64;43.93;95384.25;2090701;28;1705;-66
2022/05/17 01:55:52;;;;;;;;;;;;;;;23.66;43.77;95387.53;2085886;28;2086;-66
2022/05/17 01:56:55;;;;;;;;;;;;;;;23.66;44.02;95386.72;2085498;28;1251;-67
2022/05/17 01:57:57;;;;;;;;;;;;;;;23.66;44.62;95375.97;2090678;28;1254;-68
2022/05/17 01:59:00;;;;;;;;;;;;;;;23.66;43.70;95373.31;2090192;28;1581;-68
2022/05/17 02:00:03;;;;;;;;;;;;;;;23.68;44.24;95388.13;2090157;28;1905;-67
2022/05/17 02:01:07;;;;;;;;;;;;;;;23.69;44.29;95386.25;2089800;28;1401;-65
2022/05/17 02:02:09;;;;;;;;;;;;;;;23.69;44.03;95379.03;2090222;28;1093;-66
2022/05/17 02:03:12;;;;;;;;;;;;;;;23.71;43.73;95383.38;2090495;28;1064;-67
2022/05/17 02:04:14;;;;;;;;;;;;;;;23.69;44.01;95387.06;2090186;28;1697;-69
2022/05/17 02:05:17;;;;;;;;;;;;;;;23.70;44.15;95382.53;2090328;28;1104;-66
2022/05/17 02:06:20;;;;;;;;;;;;;;;23.71;44.17;95388.75;2089865;28;1644;-67
2022/05/17 02:07:22;;;;;;;;;;;;;;;23.69;44.11;95392.44;2085932;28;1138;-66
2022/05/17 02:08:26;;;;;;;;;;;;;;;23.69;44.06;95395.13;2085140;28;1240;-67
2022/05/17 02:09:28;;;;;;;;;;;;;;;23.71;44.11;95392.25;2089988;28;1847;-69
2022/05/17 02:10:30;;;;;;;;;;;;;;;23.71;44.04;95392.25;2090028;28;1441;-63
2022/05/17 02:11:33;;;;;;;;;;;;;;;23.72;43.73;95380.44;2090437;28;993;-69
2022/05/17 02:12:35;;;;;;;;;;;;;;;23.72;43.73;95385.00;2090480;28;1037;-70
2022/05/17 02:13:38;;;;;;;;;;;;;;;23.71;43.65;95381.50;2089925;28;1839;-69
2022/05/17 02:14:40;;;;;;;;;;;;;;;23.71;43.85;95389.56;2090542;28;1083;-70
2022/05/17 02:15:43;;;;;;;;;;;;;;;23.70;44.34;95387.91;2089864;28;1802;-66
2022/05/17 02:16:46;;;;;;;;;;;;;;;23.71;43.73;95389.56;2090062;28;1117;-68
2022/05/17 02:17:48;;;;;;;;;;;;;;;23.68;43.99;95388.13;2090072;28;2580;-71
2022/05/17 02:18:51;;;;;;;;;;;;;;;23.64;44.03;95383.41;2085568;28;1077;-67
2022/05/17 02:19:53;;;;;;;;;;;;;;;23.58;44.12;95385.13;2085196;28;1882;-69
2022/05/17 02:20:55;;;;;;;;;;;;;;;23.57;44.11;95390.72;2090263;28;1898;-68
2022/05/17 02:21:57;;;;;;;;;;;;;;;23.56;44.54;95397.13;2088748;28;1618;-70
2022/05/17 02:23:00;;;;;;;;;;;;;;;23.54;44.31;95391.19;2089738;28;1843;-69
2022/05/17 02:24:03;;;;;;;;;;;;;;;23.52;44.90;95388.69;2084253;28;1209;-67
2022/05/17 02:25:08;;;;;;;;;;;;;;;23.52;44.50;95393.25;2087423;28;1706;-69
2022/05/17 02:26:10;;;;;;;;;;;;;;;23.52;44.21;95385.19;2088069;28;1313;-66
2022/05/17 02:27:12;;;;;;;;;;;;;;;23.52;44.65;95390.56;2089936;28;1641;-67
2022/05/17 02:28:14;;;;;;;;;;;;;;;23.51;44.54;95389.75;2081867;28;1084;-67
2022/05/17 02:29:17;;;;;;;;;;;;;;;23.50;44.55;95387.28;2082349;28;1648;-67
2022/05/17 02:30:19;;;;;;;;;;;;;;;23.50;44.60;95388.09;2085071;28;1181;-67
2022/05/17 02:31:22;;;;;;;;;;;;;;;23.49;44.44;95389.16;2085774;28;2488;-67
2022/05/17 02:32:24;;;;;;;;;;;;;;;23.49;44.11;95386.47;2090079;28;1101;-66
2022/05/17 02:33:26;;;;;;;;;;;;;;;23.49;44.39;95391.00;2087742;28;1602;-67
2022/05/17 02:34:29;;;;;;;;;;;;;;;23.49;44.33;95385.66;2088772;28;1369;-67
2022/05/17 02:35:31;;;;;;;;;;;;;;;23.48;44.70;95392.03;2084443;28;1200;-66
2022/05/17 02:36:33;;;;;;;;;;;;;;;23.48;44.38;95392.88;2084289;28;1303;-67
2022/05/17 02:37:36;;;;;;;;;;;;;;;23.47;44.56;95388.53;2081854;28;1041;-67
2022/05/17 02:38:38;;;;;;;;;;;;;;;23.48;44.94;95397.41;2085855;28;1657;-65
2022/05/17 02:39:42;;;;;;;;;;;;;;;23.49;44.27;95391.00;2089982;28;1073;-65
2022/05/17 02:40:44;;;;;;;;;;;;;;;23.48;44.54;95395.56;2089467;28;1981;-65
2022/05/17 02:41:47;;;;;;;;;;;;;;;23.49;44.41;95393.69;2074751;28;1181;-64
2022/05/17 02:42:49;;;;;;;;;;;;;;;23.47;44.69;95391.22;2080927;28;1290;-65
2022/05/17 02:43:53;;;;;;;;;;;;;;;23.46;44.47;95398.44;2081875;28;1257;-65
2022/05/17 02:44:54;;;;;;;;;;;;;;;23.45;44.53;95391.47;2089525;28;1693;-65
2022/05/17 02:45:57;;;;;;;;;;;;;;;23.46;44.40;95386.91;2089701;28;1005;-65
2022/05/17 02:46:59;;;;;;;;;;;;;;;23.48;44.50;95394.72;2081799;28;1140;-65
2022/05/17 02:48:02;;;;;;;;;;;;;;;23.46;44.63;95392.28;2081741;28;1013;-66
2022/05/17 02:49:04;;;;;;;;;;;;;;;23.48;44.28;95392.03;2081747;28;1244;-69
2022/05/17 02:50:09;;;;;;;;;;;;;;;23.48;44.77;95394.72;2082302;28;1439;-67
2022/05/17 02:51:12;;;;;;;;;;;;;;;23.48;44.39;95392.03;2089668;28;1156;-67
2022/05/17 02:52:14;;;;;;;;;;;;;;;23.47;44.48;95393.91;2089830;28;973;-70
2022/05/17 02:53:16;;;;;;;;;;;;;;;23.48;44.77;95386.66;2080476;28;1295;-69
2022/05/17 02:54:19;;;;;;;;;;;;;;;23.48;44.49;95392.03;2089777;28;1218;-67
2022/05/17 02:55:22;;;;;;;;;;;;;;;23.47;44.95;95388.53;2089982;28;1088;-66
2022/05/17 02:56:25;;;;;;;;;;;;;;;23.47;44.49;95388.53;2089634;28;1480;-66
2022/05/17 02:57:27;;;;;;;;;;;;;;;23.48;44.44;95384.84;2089850;28;1112;-66
2022/05/17 02:58:30;;;;;;;;;;;;;;;23.48;44.58;95392.03;2090006;28;1001;-63
2022/05/17 02:59:32;;;;;;;;;;;;;;;23.48;44.50;95389.34;2089843;28;1742;-66
2022/05/17 03:00:35;;;;;;;;;;;;;;;23.47;44.85;95393.91;2089063;28;1618;-63
2022/05/17 03:01:36;;;;;;;;;;;;;;;23.48;44.75;95389.34;2089875;28;2009;-67
2022/05/17 03:02:39;;;;;;;;;;;;;;;23.49;44.75;95391.00;2090081;28;1009;-74
2022/05/17 03:03:42;;;;;;;;;;;;;;;22.63;38.33;95392.44;2089747;28;1092;-70
2022/05/17 03:04:45;;;;;;;;;;;;;;;21.77;39.52;95396.25;2079357;28;1661;-64
2022/05/17 03:05:47;;;;;;;;;;;;;;;20.91;39.90;95394.44;2089042;28;1707;-62
2022/05/17 03:06:50;;;;;;;;;;;;;;;20.49;40.99;95391.94;2088707;28;1626;-65
2022/05/17 03:07:52;;;;;;;;;;;;;;;20.21;41.25;95389.34;2088802;28;1621;-64
2022/05/17 03:08:55;;;;;;;;;;;;;;;20.04;41.27;95393.41;2089583;28;1721;-65
2022/05/17 03:09:57;;;;;;;;;;;;;;;20.04;41.43;95399.53;2089807;28;1171;-64
2022/05/17 03:11:01;;;;;;;;;;;;;;;19.98;40.90;95391.53;2089546;28;2089;-64
2022/05/17 03:12:04;;;;;;;;;;;;;;;19.99;41.03;95385.16;2081385;28;1117;-64
2022/05/17 03:13:10;;;;;;;;;;;;;;;20.06;40.67;95391.31;2084223;28;1491;-63
2022/05/17 03:14:13;;;;;;;;;;;;;;;19.80;40.27;95387.53;2089861;28;1020;-64
2022/05/17 03:15:18;;;;;;;;;;;;;;;19.72;40.74;95389.53;2085131;28;1617;-61
2022/05/17 03:16:20;;;;;;;;;;;;;;;19.65;40.83;95389.50;2084701;28;1306;-63
2022/05/17 03:17:23;;;;;;;;;;;;;;;19.57;40.80;95387.81;2089627;28;1137;-64
2022/05/17 03:18:25;;;;;;;;;;;;;;;19.57;41.11;95393.13;2089822;28;1073;-64
2022/05/17 03:19:28;;;;;;;;;;;;;;;19.59;40.71;95390.28;2087591;28;1977;-64
2022/05/17 03:20:29;;;;;;;;;;;;;;;19.59;40.67;95395.63;2083373;28;1493;-63
2022/05/17 03:21:32;;;;;;;;;;;;;;;19.52;40.98;95386.72;2089722;28;1906;-64
2022/05/17 03:22:34;;;;;;;;;;;;;;;19.45;40.72;95398.16;2089067;28;1629;-64
2022/05/17 03:23:37;;;;;;;;;;;;;;;19.51;40.58;95393.06;2089752;28;1009;-63
2022/05/17 03:24:39;;;;;;;;;;;;;;;19.44;40.75;95401.03;2089572;28;1618;-64
2022/05/17 03:26:03;;;;;;;;;;;;;;;19.32;41.16;95389.25;2089325;28;1683;-64
2022/05/17 03:27:06;;;;;;;;;;;;;;;19.27;41.00;95397.84;2085272;28;1016;-64
2022/05/17 03:28:11;;;;;;;;;;;;;;;19.28;40.79;95404.00;2086147;28;1661;-64
2022/05/17 03:29:13;;;;;;;;;;;;;;;19.32;40.77;95392.75;2089905;28;1037;-64
2022/05/17 03:30:15;;;;;;;;;;;;;;;19.29;40.45;95390.50;2088978;28;1571;-64
2022/05/17 03:31:17;;;;;;;;;;;;;;;19.22;40.86;95398.41;2089204;28;1334;-66
2022/05/17 03:32:20;;;;;;;;;;;;;;;19.15;40.89;95394.03;2089273;28;1655;-63
2022/05/17 03:33:22;;;;;;;;;;;;;;;19.25;41.41;95399.88;2088213;28;1986;-64
2022/05/17 03:34:25;;;;;;;;;;;;;;;19.26;42.32;95400.69;2089604;28;1690;-64
2022/05/17 03:35:27;;;;;;;;;;;;;;;19.30;42.39;95399.31;2088912;28;1095;-64
2022/05/17 03:36:30;;;;;;;;;;;;;;;19.30;42.68;95393.97;2089464;28;1675;-64
2022/05/17 03:37:32;;;;;;;;;;;;;;;19.30;42.69;95397.44;2088945;28;1705;-64
2022/05/17 03:38:35;;;;;;;;;;;;;;;19.26;42.63;95390.84;2082299;28;1783;-58
2022/05/17 03:39:36;;;;;;;;;;;;;;;19.18;42.42;95399.00;2088328;28;1766;-64
2022/05/17 03:40:39;;;;;;;;;;;;;;;19.13;43.14;95401.44;2089286;28;1771;-64
2022/05/17 03:41:42;;;;;;;;;;;;;;;19.79;42.40;95395.72;2086124;28;1992;-63
2022/05/17 03:42:45;;;;;;;;;;;;;;;19.58;42.55;95394.81;2089533;28;1621;-68
2022/05/17 03:43:47;;;;;;;;;;;;;;;19.82;41.97;95401.47;2089572;28;1115;-61
2022/05/17 03:44:50;;;;;;;;;;;;;;;19.75;41.88;95395.31;2089299;28;1811;-63
2022/05/17 03:45:52;;;;;;;;;;;;;;;19.43;43.08;95397.56;2089573;28;1036;-64
2022/05/17 03:46:55;;;;;;;;;;;;;;;19.27;43.14;95408.50;2084590;28;1824;-64
2022/05/17 03:47:57;;;;;;;;;;;;;;;19.06;43.31;95406.69;2087950;28;1458;-64
2022/05/17 03:49:00;;;;;;;;;;;;;;;18.94;43.71;95402.91;2088916;28;1606;-64
2022/05/17 03:50:02;;;;;;;;;;;;;;;18.88;43.69;95406.34;2071871;28;1250;-63
2022/05/17 03:51:11;;;;;;;;;;;;;;;18.54;44.20;95407.81;2087964;28;1584;-66
2022/05/17 03:52:13;;;;;;;;;;;;;;;18.64;44.13;95399.53;2088036;28;1072;-68
2022/05/17 03:53:16;;;;;;;;;;;;;;;18.59;43.81;95407.25;2087949;28;1213;-70
2022/05/17 03:54:19;;;;;;;;;;;;;;;18.41;43.80;95400.53;2083139;28;1524;-63
2022/05/17 03:55:21;;;;;;;;;;;;;;;18.30;44.71;95396.53;2088691;28;1261;-63
2022/05/17 03:56:25;;;;;;;;;;;;;;;18.27;44.58;95399.56;2088473;28;1657;-64
2022/05/17 03:57:28;;;;;;;;;;;;;;;18.39;45.21;95401.72;2079866;28;1148;-64
2022/05/17 03:58:31;;;;;;;;;;;;;;;18.44;44.85;95402.81;2084070;28;1625;-63
2022/05/17 03:59:33;;;;;;;;;;;;;;;18.54;44.71;95402.50;2088302;28;1692;-61
2022/05/17 04:00:35;;;;;;;;;;;;;;;18.47;44.49;95413.06;2084946;28;1793;-61
2022/05/17 04:01:38;;;;;;;;;;;;;;;18.58;44.69;95411.75;2083479;28;1906;-63
2022/05/17 04:02:41;;;;;;;;;;;;;;;18.52;44.47;95416.00;2087087;28;2089;-71
2022/05/17 04:03:44;;;;;;;;;;;;;;;18.44;44.78;95413.44;2088430;28;1637;-75
2022/05/17 04:04:46;;;;;;;;;;;;;;;18.39;45.22;95415.03;2089503;28;1092;-62
2022/05/17 04:05:49;;;;;;;;;;;;;;;18.45;45.57;95412.44;2089188;28;1614;-63
2022/05/17 04:06:51;;;;;;;;;;;;;;;18.55;45.41;95418.28;2088824;28;1630;-61
2022/05/17 04:07:53;;;;;;;;;;;;;;;18.64;45.82;95415.50;2089267;28;1365;-61
2022/05/17 04:08:56;;;;;;;;;;;;;;;18.66;45.97;95416.16;2089264;28;1032;-62
2022/05/17 04:09:58;;;;;;;;;;;;;;;18.64;45.30;95415.50;2088924;28;1549;-62
2022/05/17 04:11:01;;;;;;;;;;;;;;;18.66;45.54;95419.63;2088624;28;1718;-62
2022/05/17 04:12:03;;;;;;;;;;;;;;;18.66;45.18;95418.81;2083316;28;1540;-61
2022/05/17 04:13:08;;;;;;;;;;;;;;;18.66;45.78;95416.97;2079694;28;1405;-61
2022/05/17 04:14:09;;;;;;;;;;;;;;;18.68;45.22;95416.78;2080982;28;1092;-62
2022/05/17 04:15:14;;;;;;;;;;;;;;;18.70;45.94;95414.78;2081188;28;1151;-61
2022/05/17 04:16:15;;;;;;;;;;;;;;;18.70;45.80;95412.94;2081316;28;1093;-62
2022/05/17 04:17:18;;;;;;;;;;;;;;;18.69;45.07;95413.91;2081142;28;1093;-61
2022/05/17 04:18:20;;;;;;;;;;;;;;;18.74;45.12;95413.38;2082410;28;1651;-61
2022/05/17 04:19:23;;;;;;;;;;;;;;;18.67;45.45;95415.97;2085849;28;1637;-62
2022/05/17 04:20:26;;;;;;;;;;;;;;;18.70;45.56;95406.78;2088291;28;1836;-61
2022/05/17 04:21:30;;;;;;;;;;;;;;;18.69;45.36;95415.78;2088461;28;993;-60
2022/05/17 04:22:32;;;;;;;;;;;;;;;18.71;45.90;95413.75;2088541;28;1985;-62
2022/05/17 04:23:37;;;;;;;;;;;;;;;18.68;45.72;95419.44;2084698;28;1021;-61
2022/05/17 04:24:41;;;;;;;;;;;;;;;18.66;45.69;95418.81;2084336;28;1538;-61
2022/05/17 04:25:44;;;;;;;;;;;;;;;18.69;44.89;95426.41;2088853;28;1041;-61
2022/05/17 04:26:46;;;;;;;;;;;;;;;18.65;45.58;95422.47;2088930;28;1180;-61
2022/05/17 04:27:49;;;;;;;;;;;;;;;18.62;45.68;95429.00;2088884;28;1033;-61
2022/05/17 04:28:52;;;;;;;;;;;;;;;18.57;45.64;95422.59;2089083;28;1064;-62
2022/05/17 04:29:55;;;;;;;;;;;;;;;18.58;45.61;95430.38;2088561;28;1100;-61
2022/05/17 04:30:57;;;;;;;;;;;;;;;18.62;45.88;95420.19;2088678;28;2298;-61
2022/05/17 04:32:00;;;;;;;;;;;;;;;18.61;45.88;95427.34;2088896;28;1100;-61
2022/05/17 04:33:02;;;;;;;;;;;;;;;18.68;45.99;95419.44;2089013;28;1081;-61
2022/05/17 04:34:05;;;;;;;;;;;;;;;18.67;45.50;95423.13;2088827;28;1584;-62
2022/05/17 04:35:07;;;;;;;;;;;;;;;18.69;45.31;95421.91;2084140;28;1177;-61
2022/05/17 04:36:10;;;;;;;;;;;;;;;18.69;45.33;95426.41;2084710;28;1200;-62
2022/05/17 04:37:12;;;;;;;;;;;;;;;18.65;45.24;95420.66;2088987;28;1081;-62
2022/05/17 04:38:15;;;;;;;;;;;;;;;18.65;45.22;95427.78;2089209;28;1359;-62
2022/05/17 04:39:17;;;;;;;;;;;;;;;18.54;45.37;95421.13;2089375;28;1092;-61
2022/05/17 04:40:20;;;;;;;;;;;;;;;18.41;45.71;95427.13;2089347;28;1124;-61
2022/05/17 04:41:22;;;;;;;;;;;;;;;18.44;45.78;95423.25;2089484;28;986;-62
2022/05/17 04:42:25;;;;;;;;;;;;;;;18.47;45.45;95423.72;2089209;28;1906;-62
2022/05/17 04:43:29;;;;;;;;;;;;;;;18.45;46.07;95422.25;2089325;28;1179;-62
2022/05/17 04:44:33;;;;;;;;;;;;;;;18.41;45.59;95421.81;2088860;28;1147;-61
2022/05/17 04:45:35;;;;;;;;;;;;;;;18.41;46.87;95428.94;2089332;28;1395;-61
2022/05/17 04:46:38;;;;;;;;;;;;;;;18.41;45.99;95420.97;2084190;28;1980;-61
2022/05/17 04:47:40;;;;;;;;;;;;;;;18.27;47.06;95418.19;2087975;28;1427;-62
2022/05/17 04:48:43;;;;;;;;;;;;;;;18.39;46.07;95426.50;2090862;28;1193;-61
2022/05/17 04:49:44;;;;;;;;;;;;;;;18.50;46.39;95427.84;2090771;28;1013;-61
2022/05/17 04:50:47;;;;;;;;;;;;;;;18.49;46.74;95427.00;2090931;28;1015;-62
2022/05/17 04:51:50;;;;;;;;;;;;;;;18.49;46.79;95429.66;2090319;28;985;-62
2022/05/17 04:52:53;;;;;;;;;;;;;;;18.57;46.38;95433.22;2090763;28;1030;-62
2022/05/17 04:53:54;;;;;;;;;;;;;;;18.53;46.13;95427.47;2090817;28;976;-61
2022/05/17 04:54:57;;;;;;;;;;;;;;;18.54;46.77;95435.25;2090973;28;1081;-62
2022/05/17 04:55:59;;;;;;;;;;;;;;;18.66;46.85;95438.25;2090782;28;1118;-61
2022/05/17 04:57:02;;;;;;;;;;;;;;;18.70;47.00;95428.09;2090957;28;1034;-62
2022/05/17 04:58:04;;;;;;;;;;;;;;;18.75;46.60;95425.66;2082920;28;1242;-59
2022/05/17 04:59:07;;;;;;;;;;;;;;;18.78;45.79;95427.97;2089590;28;2034;-61
2022/05/17 05:00:12;;;;;;;;;;;;;;;18.79;46.17;95426.94;2090610;28;1128;-61
2022/05/17 05:01:15;;;;;;;;;;;;;;;18.78;46.84;95433.28;2090831;28;1284;-61
2022/05/17 05:02:17;;;;;;;;;;;;;;;18.81;46.25;95430.25;2090369;28;1354;-61
2022/05/17 05:03:19;;;;;;;;;;;;;;;18.83;46.34;95428.19;2090193;28;1898;-62
2022/05/17 05:04:22;;;;;;;;;;;;;;;18.74;46.83;95424.84;2090571;28;1180;-62
2022/05/17 05:05:24;;;;;;;;;;;;;;;18.75;47.03;95426.50;2090752;28;1083;-60
2022/05/17 05:06:28;;;;;;;;;;;;;;;18.66;46.13;95426.78;2090284;28;971;-62
2022/05/17 05:07:29;;;;;;;;;;;;;;;18.45;46.22;95420.41;2090607;28;1120;-62
2022/05/17 05:08:32;;;;;;;;;;;;;;;18.34;46.65;95418.25;2090890;28;1198;-62
2022/05/17 05:09:34;;;;;;;;;;;;;;;18.38;46.58;95424.84;2081654;28;1508;-61
2022/05/17 05:10:37;;;;;;;;;;;;;;;18.33;46.46;95420.09;2090595;28;1233;-61
2022/05/17 05:11:39;;;;;;;;;;;;;;;18.25;46.23;95416.72;2090869;28;1052;-61
2022/05/17 05:12:42;;;;;;;;;;;;;;;18.21;46.42;95421.59;2090449;28;1148;-61
2022/05/17 05:13:44;;;;;;;;;;;;;;;18.14;46.51;95423.34;2090147;28;1179;-62
2022/05/17 05:14:46;;;;;;;;;;;;;;;18.30;47.33;95416.97;2091024;28;1008;-62
2022/05/17 05:15:50;;;;;;;;;;;;;;;18.43;46.89;95421.59;2090576;28;1175;-61
2022/05/17 05:16:53;;;;;;;;;;;;;;;18.55;46.36;95420.09;2090592;28;1168;-61
2022/05/17 05:17:55;;;;;;;;;;;;;;;18.48;46.49;95420.03;2090426;28;1125;-61
2022/05/17 05:18:58;;;;;;;;;;;;;;;18.30;46.65;95417.81;2090735;28;1092;-61
2022/05/17 05:19:59;;;;;;;;;;;;;;;18.45;46.75;95416.94;2089539;28;1085;-60
2022/05/17 05:21:06;;;;;;;;;;;;;;;18.54;46.20;95413.94;2082479;28;1598;-61
2022/05/17 05:22:08;;;;;;;;;;;;;;;18.43;45.70;95417.09;2090372;28;1117;-61
2022/05/17 05:23:11;;;;;;;;;;;;;;;18.35;46.13;95419.88;2090340;28;1902;-61
2022/05/17 05:24:13;;;;;;;;;;;;;;;18.51;46.85;95419.66;2090631;28;992;-62
2022/05/17 05:25:17;;;;;;;;;;;;;;;18.72;46.19;95420.72;2090941;28;1018;-62
2022/05/17 05:26:19;;;;;;;;;;;;;;;18.73;45.79;95422.38;2090699;28;2256;-61
2022/05/17 05:27:22;;;;;;;;;;;;;;;18.69;46.02;95413.91;2090499;28;1180;-61
2022/05/17 05:28:24;;;;;;;;;;;;;;;18.75;46.35;95409.69;2090234;28;1068;-61
2022/05/17 05:29:27;;;;;;;;;;;;;;;18.72;45.88;95418.91;2090425;28;1080;-61
2022/05/17 05:30:29;;;;;;;;;;;;;;;18.74;46.29;95418.69;2090802;28;1077;-62
2022/05/17 05:31:33;;;;;;;;;;;;;;;18.84;45.87;95415.72;2086337;28;1333;-61
2022/05/17 05:32:36;;;;;;;;;;;;;;;19.05;45.91;95418.34;2085814;28;1355;-61
2022/05/17 05:33:39;;;;;;;;;;;;;;;19.07;45.34;95419.00;2090381;28;1097;-61
2022/05/17 05:34:41;;;;;;;;;;;;;;;19.15;45.09;95418.88;2090544;28;1073;-62